sensor_id;sensor_type;location;lat;lon;timestamp;P1;durP1;ratioP1;P2;durP2;ratioP2
40745;SDS011;26454;51.164;4.488;2022-11-12T00:00:51;31.00;;;23.23;;
40745;SDS011;26454;51.164;4.488;2022-11-12T00:03:18;26.90;;;21.92;;
40745;SDS011;26454;51.164;4.488;2022-11-12T00:05:45;23.45;;;19.50;;
40745;SDS011;26454;51.164;4.488;2022-11-12T00:08:20;24.38;;;20.15;;
40745;SDS011;26454;51.164;4.488;2022-11-12T00:10:47;27.27;;;21.60;;
40745;SDS011;26454;51.164;4.488;2022-11-12T00:13:14;28.45;;;22.05;;
40745;SDS011;26454;51.164;4.488;2022-11-12T00:16:09;38.08;;;29.90;;
40745;SDS011;26454;51.164;4.488;2022-11-12T00:18:49;40.92;;;31.20;;
40745;SDS011;26454;51.164;4.488;2022-11-12T00:24:27;36.92;;;28.02;;
40745;SDS011;26454;51.164;4.488;2022-11-12T00:27:22;27.30;;;22.20;;
40745;SDS011;26454;51.164;4.488;2022-11-12T00:29:58;33.10;;;26.27;;
40745;SDS011;26454;51.164;4.488;2022-11-12T00:32:24;40.88;;;28.90;;
40745;SDS011;26454;51.164;4.488;2022-11-12T00:34:53;40.60;;;32.03;;
40745;SDS011;26454;51.164;4.488;2022-11-12T00:37:24;51.80;;;35.03;;
40745;SDS011;26454;51.164;4.488;2022-11-12T00:39:56;33.80;;;27.00;;
40745;SDS011;26454;51.164;4.488;2022-11-12T00:42:25;48.10;;;35.60;;
40745;SDS011;26454;51.164;4.488;2022-11-12T00:45:06;34.17;;;28.95;;
40745;SDS011;26454;51.164;4.488;2022-11-12T00:47:38;44.03;;;32.50;;
40745;SDS011;26454;51.164;4.488;2022-11-12T00:50:05;40.97;;;32.90;;
40745;SDS011;26454;51.164;4.488;2022-11-12T00:52:35;33.90;;;26.63;;
40745;SDS011;26454;51.164;4.488;2022-11-12T00:55:02;34.05;;;26.67;;
40745;SDS011;26454;51.164;4.488;2022-11-12T00:57:29;45.53;;;33.92;;
40745;SDS011;26454;51.164;4.488;2022-11-12T01:00:16;44.53;;;32.50;;
40745;SDS011;26454;51.164;4.488;2022-11-12T01:02:51;31.40;;;25.60;;
40745;SDS011;26454;51.164;4.488;2022-11-12T01:05:23;31.25;;;24.63;;
40745;SDS011;26454;51.164;4.488;2022-11-12T01:07:51;33.05;;;24.75;;
40745;SDS011;26454;51.164;4.488;2022-11-12T01:10:23;31.42;;;25.48;;
40745;SDS011;26454;51.164;4.488;2022-11-12T01:12:51;29.40;;;25.13;;
40745;SDS011;26454;51.164;4.488;2022-11-12T01:15:27;30.35;;;25.67;;
40745;SDS011;26454;51.164;4.488;2022-11-12T01:17:54;28.17;;;25.23;;
40745;SDS011;26454;51.164;4.488;2022-11-12T01:20:23;36.85;;;23.90;;
40745;SDS011;26454;51.164;4.488;2022-11-12T01:22:55;34.00;;;24.48;;
40745;SDS011;26454;51.164;4.488;2022-11-12T01:25:22;32.13;;;26.70;;
40745;SDS011;26454;51.164;4.488;2022-11-12T01:27:51;29.73;;;25.20;;
40745;SDS011;26454;51.164;4.488;2022-11-12T01:30:19;32.45;;;23.75;;
40745;SDS011;26454;51.164;4.488;2022-11-12T01:32:45;31.70;;;24.27;;
40745;SDS011;26454;51.164;4.488;2022-11-12T01:35:14;35.65;;;28.60;;
40745;SDS011;26454;51.164;4.488;2022-11-12T01:37:41;27.08;;;23.70;;
40745;SDS011;26454;51.164;4.488;2022-11-12T01:40:08;29.63;;;24.77;;
40745;SDS011;26454;51.164;4.488;2022-11-12T01:42:35;25.65;;;22.77;;
40745;SDS011;26454;51.164;4.488;2022-11-12T01:45:13;25.13;;;22.42;;
40745;SDS011;26454;51.164;4.488;2022-11-12T01:47:40;37.20;;;27.67;;
40745;SDS011;26454;51.164;4.488;2022-11-12T01:52:43;39.17;;;31.55;;
40745;SDS011;26454;51.164;4.488;2022-11-12T01:55:18;47.97;;;36.65;;
40745;SDS011;26454;51.164;4.488;2022-11-12T01:57:47;37.25;;;28.67;;
40745;SDS011;26454;51.164;4.488;2022-11-12T02:00:25;40.72;;;31.67;;
40745;SDS011;26454;51.164;4.488;2022-11-12T02:02:55;39.85;;;30.75;;
40745;SDS011;26454;51.164;4.488;2022-11-12T02:05:22;59.33;;;40.20;;
40745;SDS011;26454;51.164;4.488;2022-11-12T02:07:51;38.70;;;30.63;;
40745;SDS011;26454;51.164;4.488;2022-11-12T02:10:19;33.35;;;26.63;;
40745;SDS011;26454;51.164;4.488;2022-11-12T02:12:46;29.73;;;26.17;;
40745;SDS011;26454;51.164;4.488;2022-11-12T02:15:32;30.80;;;26.92;;
40745;SDS011;26454;51.164;4.488;2022-11-12T02:17:58;34.25;;;29.52;;
40745;SDS011;26454;51.164;4.488;2022-11-12T02:20:25;30.98;;;25.40;;
40745;SDS011;26454;51.164;4.488;2022-11-12T02:22:52;32.25;;;25.23;;
40745;SDS011;26454;51.164;4.488;2022-11-12T02:25:20;31.17;;;25.35;;
40745;SDS011;26454;51.164;4.488;2022-11-12T02:27:47;36.33;;;26.42;;
40745;SDS011;26454;51.164;4.488;2022-11-12T02:30:39;30.58;;;24.15;;
40745;SDS011;26454;51.164;4.488;2022-11-12T02:33:03;28.20;;;24.65;;
40745;SDS011;26454;51.164;4.488;2022-11-12T02:35:30;30.27;;;25.10;;
40745;SDS011;26454;51.164;4.488;2022-11-12T02:38:07;31.85;;;26.98;;
40745;SDS011;26454;51.164;4.488;2022-11-12T02:40:33;29.02;;;24.00;;
40745;SDS011;26454;51.164;4.488;2022-11-12T02:43:00;27.80;;;24.80;;
40745;SDS011;26454;51.164;4.488;2022-11-12T02:45:35;26.63;;;21.77;;
40745;SDS011;26454;51.164;4.488;2022-11-12T02:48:02;27.80;;;23.50;;
40745;SDS011;26454;51.164;4.488;2022-11-12T02:50:29;26.60;;;22.98;;
40745;SDS011;26454;51.164;4.488;2022-11-12T02:52:57;25.30;;;21.73;;
40745;SDS011;26454;51.164;4.488;2022-11-12T02:55:23;34.80;;;24.95;;
40745;SDS011;26454;51.164;4.488;2022-11-12T02:57:49;29.77;;;23.20;;
40745;SDS011;26454;51.164;4.488;2022-11-12T03:00:15;32.00;;;24.80;;
40745;SDS011;26454;51.164;4.488;2022-11-12T03:02:42;26.38;;;22.33;;
40745;SDS011;26454;51.164;4.488;2022-11-12T03:05:22;34.63;;;23.73;;
40745;SDS011;26454;51.164;4.488;2022-11-12T03:07:49;32.78;;;27.25;;
40745;SDS011;26454;51.164;4.488;2022-11-12T03:10:16;31.65;;;25.60;;
40745;SDS011;26454;51.164;4.488;2022-11-12T03:12:42;31.27;;;25.23;;
40745;SDS011;26454;51.164;4.488;2022-11-12T03:15:08;31.83;;;25.48;;
40745;SDS011;26454;51.164;4.488;2022-11-12T03:17:40;26.63;;;23.52;;
40745;SDS011;26454;51.164;4.488;2022-11-12T03:20:12;27.30;;;22.65;;
40745;SDS011;26454;51.164;4.488;2022-11-12T03:22:57;28.02;;;23.15;;
40745;SDS011;26454;51.164;4.488;2022-11-12T03:28:04;24.35;;;21.75;;
40745;SDS011;26454;51.164;4.488;2022-11-12T03:30:41;26.38;;;22.65;;
40745;SDS011;26454;51.164;4.488;2022-11-12T03:33:13;28.80;;;23.50;;
40745;SDS011;26454;51.164;4.488;2022-11-12T03:35:40;43.92;;;32.00;;
40745;SDS011;26454;51.164;4.488;2022-11-12T03:38:09;30.52;;;24.90;;
40745;SDS011;26454;51.164;4.488;2022-11-12T03:40:35;27.35;;;22.85;;
40745;SDS011;26454;51.164;4.488;2022-11-12T03:43:01;31.80;;;25.90;;
40745;SDS011;26454;51.164;4.488;2022-11-12T03:45:29;30.80;;;24.33;;
40745;SDS011;26454;51.164;4.488;2022-11-12T03:47:56;33.83;;;27.15;;
40745;SDS011;26454;51.164;4.488;2022-11-12T03:50:24;30.73;;;24.67;;
40745;SDS011;26454;51.164;4.488;2022-11-12T03:52:51;26.65;;;22.55;;
40745;SDS011;26454;51.164;4.488;2022-11-12T03:55:22;32.70;;;26.33;;
40745;SDS011;26454;51.164;4.488;2022-11-12T03:57:49;34.97;;;28.35;;
40745;SDS011;26454;51.164;4.488;2022-11-12T04:00:17;43.28;;;32.67;;
40745;SDS011;26454;51.164;4.488;2022-11-12T04:02:44;33.22;;;27.17;;
40745;SDS011;26454;51.164;4.488;2022-11-12T04:05:10;43.10;;;32.60;;
40745;SDS011;26454;51.164;4.488;2022-11-12T04:07:59;35.92;;;27.42;;
40745;SDS011;26454;51.164;4.488;2022-11-12T04:10:44;39.58;;;31.75;;
40745;SDS011;26454;51.164;4.488;2022-11-12T04:13:10;32.42;;;27.98;;
40745;SDS011;26454;51.164;4.488;2022-11-12T04:15:55;28.80;;;23.70;;
40745;SDS011;26454;51.164;4.488;2022-11-12T04:18:43;30.38;;;25.35;;
40745;SDS011;26454;51.164;4.488;2022-11-12T04:21:33;45.05;;;32.78;;
40745;SDS011;26454;51.164;4.488;2022-11-12T04:24:15;31.65;;;23.52;;
40745;SDS011;26454;51.164;4.488;2022-11-12T04:27:01;30.67;;;25.65;;
40745;SDS011;26454;51.164;4.488;2022-11-12T04:29:27;30.90;;;24.15;;
40745;SDS011;26454;51.164;4.488;2022-11-12T04:32:12;26.48;;;22.63;;
40745;SDS011;26454;51.164;4.488;2022-11-12T04:34:41;25.58;;;22.73;;
40745;SDS011;26454;51.164;4.488;2022-11-12T04:37:08;24.10;;;20.88;;
40745;SDS011;26454;51.164;4.488;2022-11-12T04:39:35;29.40;;;23.10;;
40745;SDS011;26454;51.164;4.488;2022-11-12T04:42:01;29.08;;;23.63;;
40745;SDS011;26454;51.164;4.488;2022-11-12T04:44:46;27.20;;;22.77;;
40745;SDS011;26454;51.164;4.488;2022-11-12T04:47:27;29.35;;;24.15;;
40745;SDS011;26454;51.164;4.488;2022-11-12T04:49:53;30.90;;;24.98;;
40745;SDS011;26454;51.164;4.488;2022-11-12T04:52:20;26.08;;;22.60;;
40745;SDS011;26454;51.164;4.488;2022-11-12T04:54:47;27.27;;;22.42;;
40745;SDS011;26454;51.164;4.488;2022-11-12T04:57:13;33.20;;;25.83;;
40745;SDS011;26454;51.164;4.488;2022-11-12T04:59:40;25.23;;;22.05;;
40745;SDS011;26454;51.164;4.488;2022-11-12T05:02:07;30.50;;;22.17;;
40745;SDS011;26454;51.164;4.488;2022-11-12T05:04:35;40.78;;;31.65;;
40745;SDS011;26454;51.164;4.488;2022-11-12T05:07:01;32.22;;;25.95;;
40745;SDS011;26454;51.164;4.488;2022-11-12T05:09:27;30.27;;;24.30;;
40745;SDS011;26454;51.164;4.488;2022-11-12T05:11:55;28.65;;;23.20;;
40745;SDS011;26454;51.164;4.488;2022-11-12T05:14:22;31.15;;;22.58;;
40745;SDS011;26454;51.164;4.488;2022-11-12T05:16:48;27.15;;;22.25;;
40745;SDS011;26454;51.164;4.488;2022-11-12T05:19:15;29.00;;;22.73;;
40745;SDS011;26454;51.164;4.488;2022-11-12T05:21:45;32.08;;;24.45;;
40745;SDS011;26454;51.164;4.488;2022-11-12T05:24:29;27.88;;;23.02;;
40745;SDS011;26454;51.164;4.488;2022-11-12T05:26:58;27.85;;;21.70;;
40745;SDS011;26454;51.164;4.488;2022-11-12T05:29:24;28.00;;;23.63;;
40745;SDS011;26454;51.164;4.488;2022-11-12T05:31:50;26.63;;;20.27;;
40745;SDS011;26454;51.164;4.488;2022-11-12T05:34:16;27.63;;;21.33;;
40745;SDS011;26454;51.164;4.488;2022-11-12T05:36:45;25.45;;;21.40;;
40745;SDS011;26454;51.164;4.488;2022-11-12T05:39:11;28.92;;;22.55;;
40745;SDS011;26454;51.164;4.488;2022-11-12T05:41:40;25.55;;;21.27;;
40745;SDS011;26454;51.164;4.488;2022-11-12T05:44:07;34.90;;;27.60;;
40745;SDS011;26454;51.164;4.488;2022-11-12T05:46:34;43.72;;;31.10;;
40745;SDS011;26454;51.164;4.488;2022-11-12T05:49:01;38.95;;;27.70;;
40745;SDS011;26454;51.164;4.488;2022-11-12T05:51:29;31.42;;;23.85;;
40745;SDS011;26454;51.164;4.488;2022-11-12T05:53:55;30.00;;;22.95;;
40745;SDS011;26454;51.164;4.488;2022-11-12T05:56:22;26.60;;;22.75;;
40745;SDS011;26454;51.164;4.488;2022-11-12T05:58:50;25.92;;;21.77;;
40745;SDS011;26454;51.164;4.488;2022-11-12T06:01:16;25.90;;;21.30;;
40745;SDS011;26454;51.164;4.488;2022-11-12T06:03:43;29.20;;;21.42;;
40745;SDS011;26454;51.164;4.488;2022-11-12T06:06:10;28.00;;;21.50;;
40745;SDS011;26454;51.164;4.488;2022-11-12T06:08:38;37.97;;;22.65;;
40745;SDS011;26454;51.164;4.488;2022-11-12T06:11:04;27.60;;;19.50;;
40745;SDS011;26454;51.164;4.488;2022-11-12T06:13:33;27.45;;;21.95;;
40745;SDS011;26454;51.164;4.488;2022-11-12T06:16:02;27.90;;;21.90;;
40745;SDS011;26454;51.164;4.488;2022-11-12T06:18:28;26.90;;;21.60;;
40745;SDS011;26454;51.164;4.488;2022-11-12T06:21:00;34.03;;;25.83;;
40745;SDS011;26454;51.164;4.488;2022-11-12T06:23:46;33.70;;;25.58;;
40745;SDS011;26454;51.164;4.488;2022-11-12T06:26:12;51.92;;;34.40;;
40745;SDS011;26454;51.164;4.488;2022-11-12T06:28:40;40.42;;;29.48;;
40745;SDS011;26454;51.164;4.488;2022-11-12T06:31:06;29.50;;;22.95;;
40745;SDS011;26454;51.164;4.488;2022-11-12T06:33:32;27.60;;;21.23;;
40745;SDS011;26454;51.164;4.488;2022-11-12T06:36:00;29.75;;;23.80;;
40745;SDS011;26454;51.164;4.488;2022-11-12T06:40:55;49.38;;;31.73;;
40745;SDS011;26454;51.164;4.488;2022-11-12T06:43:22;37.65;;;27.25;;
40745;SDS011;26454;51.164;4.488;2022-11-12T06:45:49;32.20;;;22.88;;
40745;SDS011;26454;51.164;4.488;2022-11-12T06:48:15;26.70;;;21.38;;
40745;SDS011;26454;51.164;4.488;2022-11-12T06:50:41;25.25;;;19.98;;
40745;SDS011;26454;51.164;4.488;2022-11-12T06:53:09;28.23;;;20.88;;
40745;SDS011;26454;51.164;4.488;2022-11-12T06:55:35;29.15;;;21.83;;
40745;SDS011;26454;51.164;4.488;2022-11-12T06:58:01;24.98;;;20.92;;
40745;SDS011;26454;51.164;4.488;2022-11-12T07:00:27;36.03;;;25.92;;
40745;SDS011;26454;51.164;4.488;2022-11-12T07:02:53;28.25;;;22.85;;
40745;SDS011;26454;51.164;4.488;2022-11-12T07:05:19;25.42;;;20.45;;
40745;SDS011;26454;51.164;4.488;2022-11-12T07:07:45;42.00;;;29.88;;
40745;SDS011;26454;51.164;4.488;2022-11-12T07:10:15;30.55;;;22.08;;
40745;SDS011;26454;51.164;4.488;2022-11-12T07:12:41;30.42;;;23.08;;
40745;SDS011;26454;51.164;4.488;2022-11-12T07:15:07;28.58;;;21.00;;
40745;SDS011;26454;51.164;4.488;2022-11-12T07:17:36;44.55;;;28.15;;
40745;SDS011;26454;51.164;4.488;2022-11-12T07:20:02;36.03;;;26.58;;
40745;SDS011;26454;51.164;4.488;2022-11-12T07:22:28;41.47;;;28.95;;
40745;SDS011;26454;51.164;4.488;2022-11-12T07:24:54;31.35;;;24.70;;
40745;SDS011;26454;51.164;4.488;2022-11-12T07:27:21;25.88;;;21.13;;
40745;SDS011;26454;51.164;4.488;2022-11-12T07:29:47;28.35;;;22.23;;
40745;SDS011;26454;51.164;4.488;2022-11-12T07:32:13;29.33;;;22.38;;
40745;SDS011;26454;51.164;4.488;2022-11-12T07:34:39;30.05;;;22.65;;
40745;SDS011;26454;51.164;4.488;2022-11-12T07:37:06;25.98;;;22.10;;
40745;SDS011;26454;51.164;4.488;2022-11-12T07:39:32;32.28;;;25.90;;
40745;SDS011;26454;51.164;4.488;2022-11-12T07:41:58;47.45;;;30.80;;
40745;SDS011;26454;51.164;4.488;2022-11-12T07:44:24;28.30;;;21.98;;
40745;SDS011;26454;51.164;4.488;2022-11-12T07:46:50;31.13;;;22.80;;
40745;SDS011;26454;51.164;4.488;2022-11-12T07:49:17;27.38;;;24.08;;
40745;SDS011;26454;51.164;4.488;2022-11-12T07:51:43;24.08;;;21.08;;
40745;SDS011;26454;51.164;4.488;2022-11-12T07:54:11;39.38;;;28.67;;
40745;SDS011;26454;51.164;4.488;2022-11-12T07:56:38;36.58;;;26.48;;
40745;SDS011;26454;51.164;4.488;2022-11-12T07:59:04;25.38;;;20.70;;
40745;SDS011;26454;51.164;4.488;2022-11-12T08:01:45;23.23;;;20.60;;
40745;SDS011;26454;51.164;4.488;2022-11-12T08:04:12;23.25;;;19.38;;
40745;SDS011;26454;51.164;4.488;2022-11-12T08:06:39;31.60;;;23.52;;
40745;SDS011;26454;51.164;4.488;2022-11-12T08:09:06;27.75;;;22.52;;
40745;SDS011;26454;51.164;4.488;2022-11-12T08:11:33;29.58;;;22.60;;
40745;SDS011;26454;51.164;4.488;2022-11-12T08:13:59;24.02;;;19.92;;
40745;SDS011;26454;51.164;4.488;2022-11-12T08:16:26;29.23;;;23.92;;
40745;SDS011;26454;51.164;4.488;2022-11-12T08:18:52;40.90;;;28.20;;
40745;SDS011;26454;51.164;4.488;2022-11-12T08:21:18;39.28;;;26.95;;
40745;SDS011;26454;51.164;4.488;2022-11-12T08:23:46;38.38;;;26.98;;
40745;SDS011;26454;51.164;4.488;2022-11-12T08:26:14;30.65;;;23.40;;
40745;SDS011;26454;51.164;4.488;2022-11-12T08:28:40;28.15;;;22.13;;
40745;SDS011;26454;51.164;4.488;2022-11-12T08:31:13;26.35;;;20.90;;
40745;SDS011;26454;51.164;4.488;2022-11-12T08:33:39;25.25;;;18.27;;
40745;SDS011;26454;51.164;4.488;2022-11-12T08:36:07;27.23;;;20.60;;
40745;SDS011;26454;51.164;4.488;2022-11-12T08:38:33;24.10;;;19.63;;
40745;SDS011;26454;51.164;4.488;2022-11-12T08:41:04;25.45;;;19.67;;
40745;SDS011;26454;51.164;4.488;2022-11-12T08:43:32;22.35;;;17.75;;
40745;SDS011;26454;51.164;4.488;2022-11-12T08:45:58;26.42;;;18.65;;
40745;SDS011;26454;51.164;4.488;2022-11-12T08:48:25;22.88;;;18.40;;
40745;SDS011;26454;51.164;4.488;2022-11-12T08:50:51;21.98;;;17.13;;
40745;SDS011;26454;51.164;4.488;2022-11-12T08:53:19;21.58;;;17.85;;
40745;SDS011;26454;51.164;4.488;2022-11-12T08:55:45;19.55;;;16.95;;
40745;SDS011;26454;51.164;4.488;2022-11-12T08:58:12;22.65;;;17.65;;
40745;SDS011;26454;51.164;4.488;2022-11-12T09:00:39;19.55;;;16.17;;
40745;SDS011;26454;51.164;4.488;2022-11-12T09:03:12;18.90;;;15.10;;
40745;SDS011;26454;51.164;4.488;2022-11-12T09:05:38;19.25;;;15.98;;
40745;SDS011;26454;51.164;4.488;2022-11-12T09:08:09;20.35;;;17.02;;
40745;SDS011;26454;51.164;4.488;2022-11-12T09:10:35;20.17;;;16.27;;
40745;SDS011;26454;51.164;4.488;2022-11-12T09:13:03;22.45;;;16.70;;
40745;SDS011;26454;51.164;4.488;2022-11-12T09:15:29;18.23;;;14.77;;
40745;SDS011;26454;51.164;4.488;2022-11-12T09:17:56;17.77;;;15.73;;
40745;SDS011;26454;51.164;4.488;2022-11-12T09:20:22;25.15;;;16.73;;
40745;SDS011;26454;51.164;4.488;2022-11-12T09:22:49;16.65;;;14.77;;
40745;SDS011;26454;51.164;4.488;2022-11-12T09:25:16;19.67;;;17.25;;
40745;SDS011;26454;51.164;4.488;2022-11-12T09:27:43;21.80;;;16.25;;
40745;SDS011;26454;51.164;4.488;2022-11-12T09:30:09;18.77;;;15.98;;
40745;SDS011;26454;51.164;4.488;2022-11-12T09:32:35;18.90;;;16.83;;
40745;SDS011;26454;51.164;4.488;2022-11-12T09:35:10;19.45;;;16.15;;
40745;SDS011;26454;51.164;4.488;2022-11-12T09:37:36;19.45;;;16.63;;
40745;SDS011;26454;51.164;4.488;2022-11-12T09:40:03;20.77;;;16.30;;
40745;SDS011;26454;51.164;4.488;2022-11-12T09:42:29;16.67;;;14.05;;
40745;SDS011;26454;51.164;4.488;2022-11-12T09:45:04;19.23;;;15.30;;
40745;SDS011;26454;51.164;4.488;2022-11-12T09:47:33;16.65;;;14.48;;
40745;SDS011;26454;51.164;4.488;2022-11-12T09:52:37;16.50;;;14.63;;
40745;SDS011;26454;51.164;4.488;2022-11-12T09:55:28;17.58;;;12.73;;
40745;SDS011;26454;51.164;4.488;2022-11-12T09:57:52;18.10;;;13.13;;
40745;SDS011;26454;51.164;4.488;2022-11-12T10:00:20;13.55;;;12.02;;
40745;SDS011;26454;51.164;4.488;2022-11-12T10:05:30;16.02;;;13.73;;
40745;SDS011;26454;51.164;4.488;2022-11-12T10:08:01;14.15;;;12.68;;
40745;SDS011;26454;51.164;4.488;2022-11-12T10:10:37;13.77;;;11.23;;
40745;SDS011;26454;51.164;4.488;2022-11-12T10:13:09;13.57;;;11.82;;
40745;SDS011;26454;51.164;4.488;2022-11-12T10:18:29;12.07;;;10.07;;
40745;SDS011;26454;51.164;4.488;2022-11-12T10:21:14;11.68;;;10.40;;
40745;SDS011;26454;51.164;4.488;2022-11-12T10:23:45;11.55;;;10.30;;
40745;SDS011;26454;51.164;4.488;2022-11-12T10:26:16;19.70;;;9.63;;
40745;SDS011;26454;51.164;4.488;2022-11-12T10:31:15;11.35;;;9.93;;
40745;SDS011;26454;51.164;4.488;2022-11-12T10:33:42;15.27;;;10.55;;
40745;SDS011;26454;51.164;4.488;2022-11-12T10:36:28;12.43;;;9.73;;
40745;SDS011;26454;51.164;4.488;2022-11-12T10:38:57;11.43;;;9.52;;
40745;SDS011;26454;51.164;4.488;2022-11-12T10:41:27;10.52;;;9.43;;
40745;SDS011;26454;51.164;4.488;2022-11-12T10:44:05;10.68;;;8.77;;
40745;SDS011;26454;51.164;4.488;2022-11-12T10:46:34;12.07;;;8.18;;
40745;SDS011;26454;51.164;4.488;2022-11-12T10:49:05;9.82;;;8.30;;
40745;SDS011;26454;51.164;4.488;2022-11-12T10:51:36;10.68;;;8.70;;
40745;SDS011;26454;51.164;4.488;2022-11-12T10:56:48;9.43;;;7.38;;
40745;SDS011;26454;51.164;4.488;2022-11-12T11:01:43;8.10;;;7.22;;
40745;SDS011;26454;51.164;4.488;2022-11-12T11:04:27;11.57;;;9.20;;
40745;SDS011;26454;51.164;4.488;2022-11-12T11:06:59;9.50;;;8.52;;
40745;SDS011;26454;51.164;4.488;2022-11-12T11:09:27;8.60;;;7.65;;
40745;SDS011;26454;51.164;4.488;2022-11-12T11:11:54;8.75;;;7.55;;
40745;SDS011;26454;51.164;4.488;2022-11-12T11:16:55;9.63;;;7.88;;
40745;SDS011;26454;51.164;4.488;2022-11-12T11:19:25;9.05;;;7.25;;
40745;SDS011;26454;51.164;4.488;2022-11-12T11:22:01;6.97;;;6.38;;
40745;SDS011;26454;51.164;4.488;2022-11-12T11:24:36;6.55;;;5.85;;
40745;SDS011;26454;51.164;4.488;2022-11-12T11:27:10;6.47;;;5.85;;
40745;SDS011;26454;51.164;4.488;2022-11-12T11:35:00;7.60;;;5.55;;
40745;SDS011;26454;51.164;4.488;2022-11-12T11:37:31;7.25;;;6.00;;
40745;SDS011;26454;51.164;4.488;2022-11-12T11:40:11;6.65;;;5.93;;
40745;SDS011;26454;51.164;4.488;2022-11-12T11:47:52;8.00;;;5.63;;
40745;SDS011;26454;51.164;4.488;2022-11-12T11:50:34;7.32;;;5.57;;
40745;SDS011;26454;51.164;4.488;2022-11-12T11:56:01;7.55;;;5.30;;
40745;SDS011;26454;51.164;4.488;2022-11-12T11:58:41;5.38;;;4.88;;
40745;SDS011;26454;51.164;4.488;2022-11-12T12:01:15;8.20;;;5.85;;
40745;SDS011;26454;51.164;4.488;2022-11-12T12:03:47;6.22;;;4.53;;
40745;SDS011;26454;51.164;4.488;2022-11-12T12:06:27;6.25;;;5.15;;
40745;SDS011;26454;51.164;4.488;2022-11-12T12:19:49;5.53;;;5.00;;
40745;SDS011;26454;51.164;4.488;2022-11-12T12:22:18;7.30;;;5.40;;
40745;SDS011;26454;51.164;4.488;2022-11-12T12:27:14;5.70;;;4.75;;
40745;SDS011;26454;51.164;4.488;2022-11-12T12:29:51;7.63;;;5.78;;
40745;SDS011;26454;51.164;4.488;2022-11-12T12:32:26;8.55;;;5.25;;
40745;SDS011;26454;51.164;4.488;2022-11-12T12:35:05;8.32;;;5.22;;
40745;SDS011;26454;51.164;4.488;2022-11-12T12:37:54;6.00;;;4.72;;
40745;SDS011;26454;51.164;4.488;2022-11-12T12:42:56;8.57;;;5.05;;
40745;SDS011;26454;51.164;4.488;2022-11-12T12:45:39;6.95;;;4.70;;
40745;SDS011;26454;51.164;4.488;2022-11-12T12:48:06;5.35;;;4.75;;
40745;SDS011;26454;51.164;4.488;2022-11-12T12:53:04;6.13;;;4.93;;
40745;SDS011;26454;51.164;4.488;2022-11-12T12:55:54;6.13;;;5.43;;
40745;SDS011;26454;51.164;4.488;2022-11-12T13:08:57;8.10;;;5.85;;
40745;SDS011;26454;51.164;4.488;2022-11-12T13:17:03;4.53;;;4.13;;
40745;SDS011;26454;51.164;4.488;2022-11-12T13:32:52;5.72;;;3.78;;
40745;SDS011;26454;51.164;4.488;2022-11-12T13:37:54;5.53;;;4.60;;
40745;SDS011;26454;51.164;4.488;2022-11-12T13:40:32;5.85;;;4.72;;
40745;SDS011;26454;51.164;4.488;2022-11-12T13:45:28;6.35;;;4.55;;
40745;SDS011;26454;51.164;4.488;2022-11-12T13:47:56;4.85;;;3.90;;
40745;SDS011;26454;51.164;4.488;2022-11-12T13:50:24;3.63;;;3.22;;
40745;SDS011;26454;51.164;4.488;2022-11-12T13:52:51;4.65;;;3.70;;
40745;SDS011;26454;51.164;4.488;2022-11-12T13:55:18;5.25;;;4.38;;
40745;SDS011;26454;51.164;4.488;2022-11-12T13:57:48;4.63;;;3.67;;
40745;SDS011;26454;51.164;4.488;2022-11-12T14:02:47;4.22;;;3.67;;
40745;SDS011;26454;51.164;4.488;2022-11-12T14:05:22;4.10;;;3.70;;
40745;SDS011;26454;51.164;4.488;2022-11-12T14:18:46;6.90;;;3.90;;
40745;SDS011;26454;51.164;4.488;2022-11-12T14:21:17;4.28;;;3.70;;
40745;SDS011;26454;51.164;4.488;2022-11-12T14:23:45;4.90;;;3.45;;
40745;SDS011;26454;51.164;4.488;2022-11-12T14:26:31;6.22;;;4.22;;
40745;SDS011;26454;51.164;4.488;2022-11-12T14:28:59;5.72;;;3.83;;
40745;SDS011;26454;51.164;4.488;2022-11-12T14:31:25;3.88;;;3.50;;
40745;SDS011;26454;51.164;4.488;2022-11-12T14:33:52;5.13;;;3.33;;
40745;SDS011;26454;51.164;4.488;2022-11-12T14:36:19;5.72;;;3.50;;
40745;SDS011;26454;51.164;4.488;2022-11-12T14:38:47;3.83;;;3.42;;
40745;SDS011;26454;51.164;4.488;2022-11-12T14:41:18;4.88;;;3.28;;
40745;SDS011;26454;51.164;4.488;2022-11-12T14:43:46;4.60;;;2.67;;
40745;SDS011;26454;51.164;4.488;2022-11-12T14:46:29;3.90;;;3.13;;
40745;SDS011;26454;51.164;4.488;2022-11-12T14:49:01;6.95;;;2.97;;
40745;SDS011;26454;51.164;4.488;2022-11-12T14:51:40;4.65;;;3.97;;
40745;SDS011;26454;51.164;4.488;2022-11-12T14:54:13;3.53;;;3.15;;
40745;SDS011;26454;51.164;4.488;2022-11-12T14:56:40;3.22;;;2.88;;
40745;SDS011;26454;51.164;4.488;2022-11-12T14:59:14;3.63;;;3.25;;
40745;SDS011;26454;51.164;4.488;2022-11-12T15:04:41;3.92;;;3.10;;
40745;SDS011;26454;51.164;4.488;2022-11-12T15:07:24;4.63;;;3.55;;
40745;SDS011;26454;51.164;4.488;2022-11-12T15:09:55;4.78;;;3.75;;
40745;SDS011;26454;51.164;4.488;2022-11-12T15:12:26;4.45;;;3.72;;
40745;SDS011;26454;51.164;4.488;2022-11-12T15:15:15;5.40;;;3.90;;
40745;SDS011;26454;51.164;4.488;2022-11-12T15:17:45;6.15;;;3.85;;
40745;SDS011;26454;51.164;4.488;2022-11-12T15:20:12;3.00;;;2.67;;
40745;SDS011;26454;51.164;4.488;2022-11-12T15:22:39;5.40;;;3.50;;
40745;SDS011;26454;51.164;4.488;2022-11-12T15:25:27;5.57;;;3.60;;
40745;SDS011;26454;51.164;4.488;2022-11-12T15:27:54;3.65;;;3.33;;
40745;SDS011;26454;51.164;4.488;2022-11-12T15:30:24;5.68;;;4.60;;
40745;SDS011;26454;51.164;4.488;2022-11-12T15:35:37;4.90;;;3.88;;
40745;SDS011;26454;51.164;4.488;2022-11-12T15:38:11;5.72;;;3.92;;
40745;SDS011;26454;51.164;4.488;2022-11-12T15:40:42;3.92;;;3.53;;
40745;SDS011;26454;51.164;4.488;2022-11-12T15:43:11;5.00;;;3.58;;
40745;SDS011;26454;51.164;4.488;2022-11-12T15:45:37;3.58;;;3.28;;
40745;SDS011;26454;51.164;4.488;2022-11-12T15:48:04;5.57;;;4.25;;
40745;SDS011;26454;51.164;4.488;2022-11-12T15:50:31;4.43;;;4.03;;
40745;SDS011;26454;51.164;4.488;2022-11-12T15:52:59;4.50;;;3.88;;
40745;SDS011;26454;51.164;4.488;2022-11-12T15:55:26;5.75;;;4.25;;
40745;SDS011;26454;51.164;4.488;2022-11-12T15:57:53;4.82;;;4.32;;
40745;SDS011;26454;51.164;4.488;2022-11-12T16:00:22;7.90;;;5.63;;
40745;SDS011;26454;51.164;4.488;2022-11-12T16:02:51;5.13;;;4.60;;
40745;SDS011;26454;51.164;4.488;2022-11-12T16:05:22;6.82;;;5.60;;
40745;SDS011;26454;51.164;4.488;2022-11-12T16:07:49;7.43;;;6.22;;
40745;SDS011;26454;51.164;4.488;2022-11-12T16:10:16;7.32;;;5.90;;
40745;SDS011;26454;51.164;4.488;2022-11-12T16:12:43;6.53;;;5.95;;
40745;SDS011;26454;51.164;4.488;2022-11-12T16:15:19;6.50;;;5.72;;
40745;SDS011;26454;51.164;4.488;2022-11-12T16:17:51;8.57;;;6.53;;
40745;SDS011;26454;51.164;4.488;2022-11-12T16:20:18;8.85;;;5.97;;
40745;SDS011;26454;51.164;4.488;2022-11-12T16:22:45;9.45;;;6.40;;
40745;SDS011;26454;51.164;4.488;2022-11-12T16:25:12;8.93;;;6.78;;
40745;SDS011;26454;51.164;4.488;2022-11-12T16:27:39;7.93;;;6.60;;
40745;SDS011;26454;51.164;4.488;2022-11-12T16:30:11;7.13;;;6.07;;
40745;SDS011;26454;51.164;4.488;2022-11-12T16:32:38;7.95;;;6.30;;
40745;SDS011;26454;51.164;4.488;2022-11-12T16:35:04;10.18;;;7.15;;
40745;SDS011;26454;51.164;4.488;2022-11-12T16:37:31;10.90;;;9.23;;
40745;SDS011;26454;51.164;4.488;2022-11-12T16:39:58;17.63;;;11.27;;